sensor_id;sensor_type;location;lat;lon;timestamp;temperature;humidity
11934;DHT22;6026;48.784;9.198;2023-05-20T00:00:40;12.30;99.90
11934;DHT22;6026;48.784;9.198;2023-05-20T00:03:05;12.20;99.90
11934;DHT22;6026;48.784;9.198;2023-05-20T00:05:31;12.20;99.90
11934;DHT22;6026;48.784;9.198;2023-05-20T00:07:56;12.20;99.90
11934;DHT22;6026;48.784;9.198;2023-05-20T00:10:22;12.20;99.90
11934;DHT22;6026;48.784;9.198;2023-05-20T00:12:47;12.20;99.90
11934;DHT22;6026;48.784;9.198;2023-05-20T00:15:13;12.20;99.90
11934;DHT22;6026;48.784;9.198;2023-05-20T00:17:39;12.20;99.90
11934;DHT22;6026;48.784;9.198;2023-05-20T00:20:05;12.20;99.90
11934;DHT22;6026;48.784;9.198;2023-05-20T00:22:31;12.20;99.90
11934;DHT22;6026;48.784;9.198;2023-05-20T00:24:56;12.20;99.90
11934;DHT22;6026;48.784;9.198;2023-05-20T00:27:22;12.20;99.90
11934;DHT22;6026;48.784;9.198;2023-05-20T00:29:47;12.20;99.90
11934;DHT22;6026;48.784;9.198;2023-05-20T00:32:13;12.20;99.90
11934;DHT22;6026;48.784;9.198;2023-05-20T00:34:39;12.20;99.90
11934;DHT22;6026;48.784;9.198;2023-05-20T00:37:04;12.20;99.90
11934;DHT22;6026;48.784;9.198;2023-05-20T00:39:30;12.20;99.90
11934;DHT22;6026;48.784;9.198;2023-05-20T00:41:56;12.20;99.90
11934;DHT22;6026;48.784;9.198;2023-05-20T00:44:25;12.30;99.90
11934;DHT22;6026;48.784;9.198;2023-05-20T00:46:51;12.20;99.90
11934;DHT22;6026;48.784;9.198;2023-05-20T00:49:17;12.20;99.90
11934;DHT22;6026;48.784;9.198;2023-05-20T00:51:43;12.30;99.90
11934;DHT22;6026;48.784;9.198;2023-05-20T00:54:09;12.20;99.90
11934;DHT22;6026;48.784;9.198;2023-05-20T00:56:35;12.30;99.90
11934;DHT22;6026;48.784;9.198;2023-05-20T00:59:01;12.30;99.90
11934;DHT22;6026;48.784;9.198;2023-05-20T01:01:27;12.30;99.90
11934;DHT22;6026;48.784;9.198;2023-05-20T01:03:52;12.30;99.90
11934;DHT22;6026;48.784;9.198;2023-05-20T01:06:18;12.30;99.90
11934;DHT22;6026;48.784;9.198;2023-05-20T01:08:44;12.30;99.90
11934;DHT22;6026;48.784;9.198;2023-05-20T01:13:47;12.30;99.90
11934;DHT22;6026;48.784;9.198;2023-05-20T01:16:17;12.30;99.90
11934;DHT22;6026;48.784;9.198;2023-05-20T01:18:44;12.40;99.90
11934;DHT22;6026;48.784;9.198;2023-05-20T01:21:12;12.40;99.90
11934;DHT22;6026;48.784;9.198;2023-05-20T01:23:40;12.40;99.90
11934;DHT22;6026;48.784;9.198;2023-05-20T01:26:07;12.40;99.90
11934;DHT22;6026;48.784;9.198;2023-05-20T01:28:33;12.40;99.90
11934;DHT22;6026;48.784;9.198;2023-05-20T01:31:02;12.50;99.90
11934;DHT22;6026;48.784;9.198;2023-05-20T01:33:30;12.50;99.90
11934;DHT22;6026;48.784;9.198;2023-05-20T01:35:59;12.40;99.90
11934;DHT22;6026;48.784;9.198;2023-05-20T01:38:25;12.50;99.90
11934;DHT22;6026;48.784;9.198;2023-05-20T01:40:52;12.40;99.90
11934;DHT22;6026;48.784;9.198;2023-05-20T01:43:18;12.50;99.90
11934;DHT22;6026;48.784;9.198;2023-05-20T01:45:45;12.50;99.90
11934;DHT22;6026;48.784;9.198;2023-05-20T01:48:11;12.50;99.90
11934;DHT22;6026;48.784;9.198;2023-05-20T01:50:37;12.50;99.90
11934;DHT22;6026;48.784;9.198;2023-05-20T01:53:03;12.40;99.90
11934;DHT22;6026;48.784;9.198;2023-05-20T01:55:28;12.50;99.90
11934;DHT22;6026;48.784;9.198;2023-05-20T01:57:54;12.50;99.90
11934;DHT22;6026;48.784;9.198;2023-05-20T02:00:19;12.40;99.90
11934;DHT22;6026;48.784;9.198;2023-05-20T02:02:45;12.40;99.90
11934;DHT22;6026;48.784;9.198;2023-05-20T02:05:11;12.40;99.90
11934;DHT22;6026;48.784;9.198;2023-05-20T02:07:36;12.40;99.90
11934;DHT22;6026;48.784;9.198;2023-05-20T02:10:02;12.40;99.90
11934;DHT22;6026;48.784;9.198;2023-05-20T02:12:28;12.30;99.90
11934;DHT22;6026;48.784;9.198;2023-05-20T02:14:54;12.30;99.90
11934;DHT22;6026;48.784;9.198;2023-05-20T02:17:20;12.30;99.90
11934;DHT22;6026;48.784;9.198;2023-05-20T02:19:45;12.20;99.90
11934;DHT22;6026;48.784;9.198;2023-05-20T02:22:12;12.20;99.90
11934;DHT22;6026;48.784;9.198;2023-05-20T02:24:37;12.10;99.90
11934;DHT22;6026;48.784;9.198;2023-05-20T02:27:03;12.10;99.90
11934;DHT22;6026;48.784;9.198;2023-05-20T02:29:30;12.10;99.90
11934;DHT22;6026;48.784;9.198;2023-05-20T02:31:56;12.00;99.90
11934;DHT22;6026;48.784;9.198;2023-05-20T02:34:22;12.00;99.90
11934;DHT22;6026;48.784;9.198;2023-05-20T02:36:47;12.00;99.90
11934;DHT22;6026;48.784;9.198;2023-05-20T02:39:13;12.00;99.90
11934;DHT22;6026;48.784;9.198;2023-05-20T02:41:38;11.90;99.90
11934;DHT22;6026;48.784;9.198;2023-05-20T02:44:04;11.90;99.90
11934;DHT22;6026;48.784;9.198;2023-05-20T02:46:30;11.90;99.90
11934;DHT22;6026;48.784;9.198;2023-05-20T02:48:55;11.80;99.90
11934;DHT22;6026;48.784;9.198;2023-05-20T02:51:21;11.80;99.90
11934;DHT22;6026;48.784;9.198;2023-05-20T02:53:46;11.80;99.90
11934;DHT22;6026;48.784;9.198;2023-05-20T02:56:12;11.80;99.90
11934;DHT22;6026;48.784;9.198;2023-05-20T02:58:38;11.80;99.90
11934;DHT22;6026;48.784;9.198;2023-05-20T03:01:03;11.80;99.90
11934;DHT22;6026;48.784;9.198;2023-05-20T03:03:29;11.80;99.90
11934;DHT22;6026;48.784;9.198;2023-05-20T03:05:55;11.80;99.90
11934;DHT22;6026;48.784;9.198;2023-05-20T03:08:21;11.80;99.90
11934;DHT22;6026;48.784;9.198;2023-05-20T03:10:47;11.70;99.90
11934;DHT22;6026;48.784;9.198;2023-05-20T03:13:13;11.70;99.90
11934;DHT22;6026;48.784;9.198;2023-05-20T03:15:43;11.70;99.90
11934;DHT22;6026;48.784;9.198;2023-05-20T03:18:10;11.70;99.90
11934;DHT22;6026;48.784;9.198;2023-05-20T03:20:36;11.70;99.90
11934;DHT22;6026;48.784;9.198;2023-05-20T03:23:06;11.70;99.90
11934;DHT22;6026;48.784;9.198;2023-05-20T03:25:32;11.60;99.90
11934;DHT22;6026;48.784;9.198;2023-05-20T03:27:58;11.60;99.90
11934;DHT22;6026;48.784;9.198;2023-05-20T03:30:24;11.60;99.90
11934;DHT22;6026;48.784;9.198;2023-05-20T03:32:50;11.50;99.90
11934;DHT22;6026;48.784;9.198;2023-05-20T03:35:16;11.50;99.90
11934;DHT22;6026;48.784;9.198;2023-05-20T03:37:41;11.50;99.90
11934;DHT22;6026;48.784;9.198;2023-05-20T03:40:08;11.50;99.90
11934;DHT22;6026;48.784;9.198;2023-05-20T03:42:37;11.40;99.90
11934;DHT22;6026;48.784;9.198;2023-05-20T03:45:04;11.40;99.90
11934;DHT22;6026;48.784;9.198;2023-05-20T03:47:31;11.40;99.90
11934;DHT22;6026;48.784;9.198;2023-05-20T03:49:56;11.40;99.90
11934;DHT22;6026;48.784;9.198;2023-05-20T03:52:22;11.40;99.90
11934;DHT22;6026;48.784;9.198;2023-05-20T03:54:47;11.30;99.90
11934;DHT22;6026;48.784;9.198;2023-05-20T03:57:13;11.40;99.90
11934;DHT22;6026;48.784;9.198;2023-05-20T03:59:39;11.40;99.90
11934;DHT22;6026;48.784;9.198;2023-05-20T04:02:05;11.40;99.90
11934;DHT22;6026;48.784;9.198;2023-05-20T04:04:31;11.40;99.90
11934;DHT22;6026;48.784;9.198;2023-05-20T04:06:57;11.50;99.90
11934;DHT22;6026;48.784;9.198;2023-05-20T04:09:25;11.50;99.90
11934;DHT22;6026;48.784;9.198;2023-05-20T04:11:51;11.50;99.90
11934;DHT22;6026;48.784;9.198;2023-05-20T04:14:17;11.60;99.90
11934;DHT22;6026;48.784;9.198;2023-05-20T04:16:43;11.60;99.90
11934;DHT22;6026;48.784;9.198;2023-05-20T04:19:09;11.70;99.90
11934;DHT22;6026;48.784;9.198;2023-05-20T04:21:35;11.70;99.90
11934;DHT22;6026;48.784;9.198;2023-05-20T04:24:00;11.70;99.90
11934;DHT22;6026;48.784;9.198;2023-05-20T04:26:26;11.70;99.90
11934;DHT22;6026;48.784;9.198;2023-05-20T04:28:52;11.80;99.90
11934;DHT22;6026;48.784;9.198;2023-05-20T04:31:17;11.80;99.90
11934;DHT22;6026;48.784;9.198;2023-05-20T04:33:43;11.80;99.90
11934;DHT22;6026;48.784;9.198;2023-05-20T04:36:10;11.80;99.90
11934;DHT22;6026;48.784;9.198;2023-05-20T04:38:36;11.90;99.90
11934;DHT22;6026;48.784;9.198;2023-05-20T04:41:03;11.90;99.90
11934;DHT22;6026;48.784;9.198;2023-05-20T04:43:28;11.90;99.90
11934;DHT22;6026;48.784;9.198;2023-05-20T04:45:55;12.00;99.90
11934;DHT22;6026;48.784;9.198;2023-05-20T04:48:21;12.00;99.90
11934;DHT22;6026;48.784;9.198;2023-05-20T04:50:47;12.00;99.90
11934;DHT22;6026;48.784;9.198;2023-05-20T04:53:14;12.00;99.90
11934;DHT22;6026;48.784;9.198;2023-05-20T04:55:40;12.10;99.90
11934;DHT22;6026;48.784;9.198;2023-05-20T04:58:07;12.20;99.90
11934;DHT22;6026;48.784;9.198;2023-05-20T05:00:40;12.20;99.90
11934;DHT22;6026;48.784;9.198;2023-05-20T05:03:05;12.20;99.90
11934;DHT22;6026;48.784;9.198;2023-05-20T05:05:31;12.20;99.90
11934;DHT22;6026;48.784;9.198;2023-05-20T05:07:58;12.30;99.90
11934;DHT22;6026;48.784;9.198;2023-05-20T05:10:24;12.30;99.90
11934;DHT22;6026;48.784;9.198;2023-05-20T05:12:49;12.40;99.90
11934;DHT22;6026;48.784;9.198;2023-05-20T05:15:15;12.40;99.90
11934;DHT22;6026;48.784;9.198;2023-05-20T05:17:40;12.50;99.90
11934;DHT22;6026;48.784;9.198;2023-05-20T05:20:07;12.60;99.90
11934;DHT22;6026;48.784;9.198;2023-05-20T05:22:33;12.60;99.90
11934;DHT22;6026;48.784;9.198;2023-05-20T05:25:02;12.70;99.90
11934;DHT22;6026;48.784;9.198;2023-05-20T05:27:27;12.80;99.90
11934;DHT22;6026;48.784;9.198;2023-05-20T05:29:53;12.90;99.90
11934;DHT22;6026;48.784;9.198;2023-05-20T05:32:18;12.90;99.90
11934;DHT22;6026;48.784;9.198;2023-05-20T05:34:44;13.00;99.90
11934;DHT22;6026;48.784;9.198;2023-05-20T05:37:10;13.10;99.90
11934;DHT22;6026;48.784;9.198;2023-05-20T05:39:35;13.20;99.90
11934;DHT22;6026;48.784;9.198;2023-05-20T05:42:02;13.30;99.90
11934;DHT22;6026;48.784;9.198;2023-05-20T05:44:28;13.30;99.90
11934;DHT22;6026;48.784;9.198;2023-05-20T05:46:54;13.40;99.90
11934;DHT22;6026;48.784;9.198;2023-05-20T05:49:19;13.50;99.90
11934;DHT22;6026;48.784;9.198;2023-05-20T05:51:45;13.60;99.90
11934;DHT22;6026;48.784;9.198;2023-05-20T05:54:10;13.70;99.90
11934;DHT22;6026;48.784;9.198;2023-05-20T05:56:36;13.80;99.90
11934;DHT22;6026;48.784;9.198;2023-05-20T05:59:01;13.90;99.90
11934;DHT22;6026;48.784;9.198;2023-05-20T06:01:27;13.90;99.90
11934;DHT22;6026;48.784;9.198;2023-05-20T06:03:52;14.00;99.90
11934;DHT22;6026;48.784;9.198;2023-05-20T06:06:18;14.10;99.90
11934;DHT22;6026;48.784;9.198;2023-05-20T06:08:44;14.20;99.90
11934;DHT22;6026;48.784;9.198;2023-05-20T06:11:09;14.20;99.90
11934;DHT22;6026;48.784;9.198;2023-05-20T06:13:35;14.30;99.90
11934;DHT22;6026;48.784;9.198;2023-05-20T06:16:01;14.40;99.90
11934;DHT22;6026;48.784;9.198;2023-05-20T06:18:26;14.40;99.90
11934;DHT22;6026;48.784;9.198;2023-05-20T06:20:56;14.50;99.90
11934;DHT22;6026;48.784;9.198;2023-05-20T06:23:21;14.50;99.90
11934;DHT22;6026;48.784;9.198;2023-05-20T06:25:47;14.60;99.90
11934;DHT22;6026;48.784;9.198;2023-05-20T06:28:13;14.60;99.90
11934;DHT22;6026;48.784;9.198;2023-05-20T06:30:40;14.70;99.90
11934;DHT22;6026;48.784;9.198;2023-05-20T06:33:06;14.80;99.90
11934;DHT22;6026;48.784;9.198;2023-05-20T06:35:31;14.90;99.90
11934;DHT22;6026;48.784;9.198;2023-05-20T06:37:59;14.90;99.90
11934;DHT22;6026;48.784;9.198;2023-05-20T06:40:26;15.10;99.90
11934;DHT22;6026;48.784;9.198;2023-05-20T06:42:52;15.10;99.90
11934;DHT22;6026;48.784;9.198;2023-05-20T06:45:17;15.20;99.90
11934;DHT22;6026;48.784;9.198;2023-05-20T06:47:43;15.30;99.90
11934;DHT22;6026;48.784;9.198;2023-05-20T06:50:10;15.40;99.90
11934;DHT22;6026;48.784;9.198;2023-05-20T06:52:36;15.50;99.90
11934;DHT22;6026;48.784;9.198;2023-05-20T06:55:03;15.70;99.90
11934;DHT22;6026;48.784;9.198;2023-05-20T06:57:28;16.00;99.90
11934;DHT22;6026;48.784;9.198;2023-05-20T06:59:54;16.40;99.90
11934;DHT22;6026;48.784;9.198;2023-05-20T07:02:20;16.80;99.90
11934;DHT22;6026;48.784;9.198;2023-05-20T07:04:46;16.90;99.90
11934;DHT22;6026;48.784;9.198;2023-05-20T07:07:12;16.80;99.90
11934;DHT22;6026;48.784;9.198;2023-05-20T07:09:37;17.00;99.90
11934;DHT22;6026;48.784;9.198;2023-05-20T07:12:03;17.00;99.90
11934;DHT22;6026;48.784;9.198;2023-05-20T07:14:29;16.90;99.90
11934;DHT22;6026;48.784;9.198;2023-05-20T07:16:54;16.90;99.90
11934;DHT22;6026;48.784;9.198;2023-05-20T07:19:20;17.10;99.90
11934;DHT22;6026;48.784;9.198;2023-05-20T07:21:45;17.00;99.90
11934;DHT22;6026;48.784;9.198;2023-05-20T07:24:11;17.10;99.90
11934;DHT22;6026;48.784;9.198;2023-05-20T07:26:37;17.00;99.90
11934;DHT22;6026;48.784;9.198;2023-05-20T07:29:03;17.10;99.90
11934;DHT22;6026;48.784;9.198;2023-05-20T07:31:29;17.40;99.90
11934;DHT22;6026;48.784;9.198;2023-05-20T07:33:55;17.60;99.90
11934;DHT22;6026;48.784;9.198;2023-05-20T07:36:21;17.90;99.90
11934;DHT22;6026;48.784;9.198;2023-05-20T07:38:47;18.10;99.90
11934;DHT22;6026;48.784;9.198;2023-05-20T07:41:12;18.30;99.90
11934;DHT22;6026;48.784;9.198;2023-05-20T07:43:38;18.50;99.90
11934;DHT22;6026;48.784;9.198;2023-05-20T07:46:03;18.40;99.90
11934;DHT22;6026;48.784;9.198;2023-05-20T07:48:29;18.50;99.90
11934;DHT22;6026;48.784;9.198;2023-05-20T07:50:54;18.20;99.90
11934;DHT22;6026;48.784;9.198;2023-05-20T07:53:23;18.30;99.90
11934;DHT22;6026;48.784;9.198;2023-05-20T07:55:49;18.40;99.90
11934;DHT22;6026;48.784;9.198;2023-05-20T07:58:15;18.50;99.90
11934;DHT22;6026;48.784;9.198;2023-05-20T08:00:40;18.40;99.90
11934;DHT22;6026;48.784;9.198;2023-05-20T08:03:06;18.40;99.90
11934;DHT22;6026;48.784;9.198;2023-05-20T08:05:32;18.50;99.90
11934;DHT22;6026;48.784;9.198;2023-05-20T08:08:00;18.60;99.90
11934;DHT22;6026;48.784;9.198;2023-05-20T08:10:26;18.50;99.90
11934;DHT22;6026;48.784;9.198;2023-05-20T08:12:51;18.70;99.90
11934;DHT22;6026;48.784;9.198;2023-05-20T08:15:17;19.00;99.90
11934;DHT22;6026;48.784;9.198;2023-05-20T08:17:43;19.30;99.90
11934;DHT22;6026;48.784;9.198;2023-05-20T08:20:09;19.30;99.90
11934;DHT22;6026;48.784;9.198;2023-05-20T08:22:37;19.50;99.90
11934;DHT22;6026;48.784;9.198;2023-05-20T08:25:03;19.70;99.90
11934;DHT22;6026;48.784;9.198;2023-05-20T08:27:29;19.50;99.90
11934;DHT22;6026;48.784;9.198;2023-05-20T08:29:54;19.40;99.90
11934;DHT22;6026;48.784;9.198;2023-05-20T08:32:20;19.20;99.90
11934;DHT22;6026;48.784;9.198;2023-05-20T08:34:46;19.10;99.90
11934;DHT22;6026;48.784;9.198;2023-05-20T08:37:13;18.80;99.90
11934;DHT22;6026;48.784;9.198;2023-05-20T08:39:39;18.80;99.90
11934;DHT22;6026;48.784;9.198;2023-05-20T08:42:05;19.00;99.90
11934;DHT22;6026;48.784;9.198;2023-05-20T08:44:32;19.00;99.90
11934;DHT22;6026;48.784;9.198;2023-05-20T08:46:59;19.00;99.90
11934;DHT22;6026;48.784;9.198;2023-05-20T08:49:25;19.10;99.90
11934;DHT22;6026;48.784;9.198;2023-05-20T08:51:51;19.20;99.90
11934;DHT22;6026;48.784;9.198;2023-05-20T08:54:16;19.20;99.90
11934;DHT22;6026;48.784;9.198;2023-05-20T08:56:43;19.20;99.90
11934;DHT22;6026;48.784;9.198;2023-05-20T08:59:09;19.30;99.90
11934;DHT22;6026;48.784;9.198;2023-05-20T09:01:41;19.40;99.90
11934;DHT22;6026;48.784;9.198;2023-05-20T09:04:09;19.50;99.90
11934;DHT22;6026;48.784;9.198;2023-05-20T09:06:45;19.60;99.90
11934;DHT22;6026;48.784;9.198;2023-05-20T09:09:14;20.10;99.90
11934;DHT22;6026;48.784;9.198;2023-05-20T09:11:40;20.60;99.90
11934;DHT22;6026;48.784;9.198;2023-05-20T09:14:07;21.00;99.90
11934;DHT22;6026;48.784;9.198;2023-05-20T09:16:33;21.20;99.90
11934;DHT22;6026;48.784;9.198;2023-05-20T09:18:58;21.40;99.90
11934;DHT22;6026;48.784;9.198;2023-05-20T09:21:27;21.80;99.90
11934;DHT22;6026;48.784;9.198;2023-05-20T09:23:53;22.30;99.90
11934;DHT22;6026;48.784;9.198;2023-05-20T09:26:22;22.70;99.90
11934;DHT22;6026;48.784;9.198;2023-05-20T09:28:49;22.90;99.90
11934;DHT22;6026;48.784;9.198;2023-05-20T09:31:15;22.90;99.90
11934;DHT22;6026;48.784;9.198;2023-05-20T09:33:41;22.80;99.90
11934;DHT22;6026;48.784;9.198;2023-05-20T09:36:07;22.70;99.90
11934;DHT22;6026;48.784;9.198;2023-05-20T09:38:36;22.80;99.90
11934;DHT22;6026;48.784;9.198;2023-05-20T09:41:10;22.60;99.90
11934;DHT22;6026;48.784;9.198;2023-05-20T09:43:38;22.60;99.90
11934;DHT22;6026;48.784;9.198;2023-05-20T09:46:03;22.90;99.90
11934;DHT22;6026;48.784;9.198;2023-05-20T09:48:30;23.00;99.90
11934;DHT22;6026;48.784;9.198;2023-05-20T09:50:56;22.90;99.90
11934;DHT22;6026;48.784;9.198;2023-05-20T09:53:25;22.90;99.90
11934;DHT22;6026;48.784;9.198;2023-05-20T09:55:51;22.70;99.90
11934;DHT22;6026;48.784;9.198;2023-05-20T09:58:19;22.80;99.90
11934;DHT22;6026;48.784;9.198;2023-05-20T10:00:44;22.90;99.90
11934;DHT22;6026;48.784;9.198;2023-05-20T10:03:11;22.90;99.90
11934;DHT22;6026;48.784;9.198;2023-05-20T10:05:47;23.30;99.90
11934;DHT22;6026;48.784;9.198;2023-05-20T10:08:27;23.60;99.90
11934;DHT22;6026;48.784;9.198;2023-05-20T10:11:17;23.90;99.90
11934;DHT22;6026;48.784;9.198;2023-05-20T10:14:05;24.20;99.90
11934;DHT22;6026;48.784;9.198;2023-05-20T10:16:49;24.60;99.90
11934;DHT22;6026;48.784;9.198;2023-05-20T10:19:28;24.70;99.90
11934;DHT22;6026;48.784;9.198;2023-05-20T10:22:03;24.40;99.90
11934;DHT22;6026;48.784;9.198;2023-05-20T10:24:30;24.20;99.90
11934;DHT22;6026;48.784;9.198;2023-05-20T10:26:57;23.90;99.90
11934;DHT22;6026;48.784;9.198;2023-05-20T10:29:24;23.90;99.90
11934;DHT22;6026;48.784;9.198;2023-05-20T10:31:51;23.90;99.90
11934;DHT22;6026;48.784;9.198;2023-05-20T10:34:17;24.00;99.90
11934;DHT22;6026;48.784;9.198;2023-05-20T10:39:23;24.10;99.90
11934;DHT22;6026;48.784;9.198;2023-05-20T10:41:50;24.10;99.90
11934;DHT22;6026;48.784;9.198;2023-05-20T10:44:15;24.40;99.90
11934;DHT22;6026;48.784;9.198;2023-05-20T10:46:41;24.40;99.90
11934;DHT22;6026;48.784;9.198;2023-05-20T10:49:19;24.10;99.90
11934;DHT22;6026;48.784;9.198;2023-05-20T10:51:46;24.10;99.90
11934;DHT22;6026;48.784;9.198;2023-05-20T10:54:12;23.90;99.90
11934;DHT22;6026;48.784;9.198;2023-05-20T10:56:39;24.00;99.90
11934;DHT22;6026;48.784;9.198;2023-05-20T10:59:05;24.00;99.90
11934;DHT22;6026;48.784;9.198;2023-05-20T11:01:31;24.30;99.90
11934;DHT22;6026;48.784;9.198;2023-05-20T11:03:57;24.70;99.90
11934;DHT22;6026;48.784;9.198;2023-05-20T11:06:26;25.00;99.90
11934;DHT22;6026;48.784;9.198;2023-05-20T11:08:53;25.40;99.90
11934;DHT22;6026;48.784;9.198;2023-05-20T11:11:18;25.50;99.90
11934;DHT22;6026;48.784;9.198;2023-05-20T11:13:47;25.60;99.90
11934;DHT22;6026;48.784;9.198;2023-05-20T11:16:14;25.70;99.90
11934;DHT22;6026;48.784;9.198;2023-05-20T11:18:40;26.00;99.90
11934;DHT22;6026;48.784;9.198;2023-05-20T11:21:05;26.20;99.90
11934;DHT22;6026;48.784;9.198;2023-05-20T11:23:31;26.40;99.90
11934;DHT22;6026;48.784;9.198;2023-05-20T11:25:57;26.50;99.90
11934;DHT22;6026;48.784;9.198;2023-05-20T11:28:23;26.60;99.90
11934;DHT22;6026;48.784;9.198;2023-05-20T11:30:50;26.70;99.90
11934;DHT22;6026;48.784;9.198;2023-05-20T11:33:17;26.70;99.90
11934;DHT22;6026;48.784;9.198;2023-05-20T11:35:51;26.90;99.90
11934;DHT22;6026;48.784;9.198;2023-05-20T11:38:18;27.20;99.90
11934;DHT22;6026;48.784;9.198;2023-05-20T11:40:45;27.30;99.90
11934;DHT22;6026;48.784;9.198;2023-05-20T11:43:12;26.90;99.90
11934;DHT22;6026;48.784;9.198;2023-05-20T11:45:43;26.70;99.90
11934;DHT22;6026;48.784;9.198;2023-05-20T11:48:10;26.40;99.90
11934;DHT22;6026;48.784;9.198;2023-05-20T11:50:41;26.40;99.90
11934;DHT22;6026;48.784;9.198;2023-05-20T11:53:09;26.30;99.90
11934;DHT22;6026;48.784;9.198;2023-05-20T11:55:49;25.90;99.90
11934;DHT22;6026;48.784;9.198;2023-05-20T11:58:19;25.60;99.90
11934;DHT22;6026;48.784;9.198;2023-05-20T12:00:45;25.30;99.90
11934;DHT22;6026;48.784;9.198;2023-05-20T12:03:11;25.10;99.90
11934;DHT22;6026;48.784;9.198;2023-05-20T12:05:37;25.00;99.90
11934;DHT22;6026;48.784;9.198;2023-05-20T12:08:04;24.80;99.90
11934;DHT22;6026;48.784;9.198;2023-05-20T12:10:29;24.70;99.90
11934;DHT22;6026;48.784;9.198;2023-05-20T12:12:55;24.50;99.90
11934;DHT22;6026;48.784;9.198;2023-05-20T12:15:21;24.60;99.90
11934;DHT22;6026;48.784;9.198;2023-05-20T12:17:51;24.70;99.90
11934;DHT22;6026;48.784;9.198;2023-05-20T12:20:20;24.90;99.90
11934;DHT22;6026;48.784;9.198;2023-05-20T12:22:46;25.50;99.90
11934;DHT22;6026;48.784;9.198;2023-05-20T12:25:13;25.90;99.90
11934;DHT22;6026;48.784;9.198;2023-05-20T12:27:40;26.30;99.90
11934;DHT22;6026;48.784;9.198;2023-05-20T12:30:06;26.50;99.90
11934;DHT22;6026;48.784;9.198;2023-05-20T12:32:36;26.60;99.90
11934;DHT22;6026;48.784;9.198;2023-05-20T12:35:02;26.70;99.90
11934;DHT22;6026;48.784;9.198;2023-05-20T12:37:28;26.70;99.90
11934;DHT22;6026;48.784;9.198;2023-05-20T12:39:54;26.40;99.90
11934;DHT22;6026;48.784;9.198;2023-05-20T12:42:20;26.30;99.90
11934;DHT22;6026;48.784;9.198;2023-05-20T12:44:45;26.20;99.90
11934;DHT22;6026;48.784;9.198;2023-05-20T12:47:11;26.30;99.90
11934;DHT22;6026;48.784;9.198;2023-05-20T12:49:36;26.30;99.90
11934;DHT22;6026;48.784;9.198;2023-05-20T12:52:02;26.20;99.90
11934;DHT22;6026;48.784;9.198;2023-05-20T12:54:27;26.10;99.90
11934;DHT22;6026;48.784;9.198;2023-05-20T12:56:53;26.00;99.90
11934;DHT22;6026;48.784;9.198;2023-05-20T12:59:19;26.00;99.90
11934;DHT22;6026;48.784;9.198;2023-05-20T13:01:45;25.90;99.90
11934;DHT22;6026;48.784;9.198;2023-05-20T13:04:10;25.60;99.90
11934;DHT22;6026;48.784;9.198;2023-05-20T13:06:36;25.50;99.90
11934;DHT22;6026;48.784;9.198;2023-05-20T13:09:02;25.50;99.90
11934;DHT22;6026;48.784;9.198;2023-05-20T13:11:27;25.60;99.90
11934;DHT22;6026;48.784;9.198;2023-05-20T13:13:54;25.50;99.90
11934;DHT22;6026;48.784;9.198;2023-05-20T13:16:22;25.30;99.90
11934;DHT22;6026;48.784;9.198;2023-05-20T13:18:47;25.40;99.90
11934;DHT22;6026;48.784;9.198;2023-05-20T13:21:13;25.60;99.90
11934;DHT22;6026;48.784;9.198;2023-05-20T13:23:39;26.10;99.90
11934;DHT22;6026;48.784;9.198;2023-05-20T13:26:05;26.50;99.90
11934;DHT22;6026;48.784;9.198;2023-05-20T13:28:31;26.70;99.90
11934;DHT22;6026;48.784;9.198;2023-05-20T13:30:56;26.80;99.90
11934;DHT22;6026;48.784;9.198;2023-05-20T13:33:22;26.80;99.90
11934;DHT22;6026;48.784;9.198;2023-05-20T13:35:48;26.60;99.90
11934;DHT22;6026;48.784;9.198;2023-05-20T13:38:14;26.80;99.90
11934;DHT22;6026;48.784;9.198;2023-05-20T13:40:40;26.70;99.90
11934;DHT22;6026;48.784;9.198;2023-05-20T13:43:06;27.00;99.90
11934;DHT22;6026;48.784;9.198;2023-05-20T13:45:32;27.10;99.90
11934;DHT22;6026;48.784;9.198;2023-05-20T13:47:57;27.40;99.90
11934;DHT22;6026;48.784;9.198;2023-05-20T13:50:23;27.40;99.90
11934;DHT22;6026;48.784;9.198;2023-05-20T13:52:48;27.50;99.90
11934;DHT22;6026;48.784;9.198;2023-05-20T13:55:14;27.50;99.90
11934;DHT22;6026;48.784;9.198;2023-05-20T13:57:41;27.40;99.90
11934;DHT22;6026;48.784;9.198;2023-05-20T14:00:07;27.00;99.90
11934;DHT22;6026;48.784;9.198;2023-05-20T14:02:33;26.30;99.90
11934;DHT22;6026;48.784;9.198;2023-05-20T14:04:59;26.20;99.90
11934;DHT22;6026;48.784;9.198;2023-05-20T14:07:24;26.10;99.90
11934;DHT22;6026;48.784;9.198;2023-05-20T14:09:50;25.90;99.90
11934;DHT22;6026;48.784;9.198;2023-05-20T14:12:15;25.90;99.90
11934;DHT22;6026;48.784;9.198;2023-05-20T14:14:41;25.60;99.90
11934;DHT22;6026;48.784;9.198;2023-05-20T14:17:06;25.50;99.90
11934;DHT22;6026;48.784;9.198;2023-05-20T14:19:33;25.50;99.90
11934;DHT22;6026;48.784;9.198;2023-05-20T14:21:59;25.40;99.90
11934;DHT22;6026;48.784;9.198;2023-05-20T14:24:26;25.50;99.90
11934;DHT22;6026;48.784;9.198;2023-05-20T14:26:52;25.40;99.90
11934;DHT22;6026;48.784;9.198;2023-05-20T14:29:17;25.30;99.90
11934;DHT22;6026;48.784;9.198;2023-05-20T14:31:43;25.40;99.90
11934;DHT22;6026;48.784;9.198;2023-05-20T14:34:09;25.40;99.90
11934;DHT22;6026;48.784;9.198;2023-05-20T14:36:35;25.30;99.90
11934;DHT22;6026;48.784;9.198;2023-05-20T14:39:00;25.00;99.90
11934;DHT22;6026;48.784;9.198;2023-05-20T14:41:28;25.00;99.90
11934;DHT22;6026;48.784;9.198;2023-05-20T14:43:54;24.80;99.90
11934;DHT22;6026;48.784;9.198;2023-05-20T14:46:20;24.70;99.90
11934;DHT22;6026;48.784;9.198;2023-05-20T14:48:46;24.70;99.90
11934;DHT22;6026;48.784;9.198;2023-05-20T14:51:11;24.70;99.90
11934;DHT22;6026;48.784;9.198;2023-05-20T14:53:37;24.60;99.90
11934;DHT22;6026;48.784;9.198;2023-05-20T14:56:03;24.60;99.90
11934;DHT22;6026;48.784;9.198;2023-05-20T14:58:29;24.60;99.90
11934;DHT22;6026;48.784;9.198;2023-05-20T15:00:54;24.70;99.90
11934;DHT22;6026;48.784;9.198;2023-05-20T15:03:20;24.80;99.90
11934;DHT22;6026;48.784;9.198;2023-05-20T15:05:47;24.80;99.90
11934;DHT22;6026;48.784;9.198;2023-05-20T15:08:13;24.80;99.90
11934;DHT22;6026;48.784;9.198;2023-05-20T15:10:38;24.90;99.90
11934;DHT22;6026;48.784;9.198;2023-05-20T15:13:04;24.90;99.90
11934;DHT22;6026;48.784;9.198;2023-05-20T15:15:30;24.80;99.90
11934;DHT22;6026;48.784;9.198;2023-05-20T15:17:56;24.70;99.90
11934;DHT22;6026;48.784;9.198;2023-05-20T15:20:21;24.60;99.90
11934;DHT22;6026;48.784;9.198;2023-05-20T15:22:47;24.60;99.90
11934;DHT22;6026;48.784;9.198;2023-05-20T15:25:13;24.60;99.90
11934;DHT22;6026;48.784;9.198;2023-05-20T15:27:40;24.40;99.90
11934;DHT22;6026;48.784;9.198;2023-05-20T15:30:07;24.30;99.90
11934;DHT22;6026;48.784;9.198;2023-05-20T15:32:32;24.30;99.90
11934;DHT22;6026;48.784;9.198;2023-05-20T15:34:58;24.00;99.90
11934;DHT22;6026;48.784;9.198;2023-05-20T15:37:23;23.80;99.90
11934;DHT22;6026;48.784;9.198;2023-05-20T15:39:49;23.60;99.90
11934;DHT22;6026;48.784;9.198;2023-05-20T15:42:14;23.40;99.90
11934;DHT22;6026;48.784;9.198;2023-05-20T15:44:43;23.30;99.90